Blair, Illinois
Current Conditions -  °F | °C
As of 4:35 PM on Wednesday 22 Oct 2014 (Local Time) from KFOA Reporting Station
Clear Clear  
Wind Chill: 62°   Ceiling: Unl
Heat Index: 62°   Visibility: NA
Dew Point: 38°   Wind: 5mph
Humidity: 42%   Direction: 40°NE
Pressure: 30.26"   Gusts: NA
Location:  38.8267°N, 88.5024°W
Report Text: KFOA 222135Z AUTO 04004KT CLR 17/04 A3026 RMK AO2 P0003 T01650035 PWINO
Loading
Personal Weather Stations






























Interactive Weather Map
Tropical Storm Tracking
New forecast layout! Learn more

10-Day Weather Forecast

Advertisements
Track Severe Weather on mobile